Rotterdam — PDGS — position and weather

sailwx.info

Track history (hours):
 
Tides and Currents Weather Stations Pressure Air Temp Water Temp Dewpoint Dewpoint Depression Visibility Wind Speed Wind Dir Waves Ship Positions

Rotterdam

Operator: Holland America Line

Last reported at 2018-Jul-20 12:00 UTC. Time now 2018-Jul-22 03:20 UTC.
Position N 43°24' W 064°36'.

Length 228 m; beam 29 m.

Type: Ship. MMSI: 24616700.

Wind from 110 at 3 knots

Barometer 1022.9 mb
Visibility: greater than 0.0 NM

Date/timePositionNaut miles runAvg speedWind from/ knotsBaromVisibWave heightAir tempDewpointWater temp
2018-Jul-20 12:00N 43°24' W 064°36'166 7.3 110 / 31022.9 0.0
2018-Jul-19 13:16N 44°24' W 068°11'2 7.6
2018-Jul-19 12:57N 44°22' W 068°09'511.9
2018-Jul-19 12:30N 44°16' W 068°08'713.8
2018-Jul-19 12:00N 44°10' W 068°08'916.6
2018-Jul-19 11:28N 44°01' W 068°10'817.2
2018-Jul-19 11:00N 43°54' W 068°17'816.8
2018-Jul-19 10:30N 43°48' W 068°24'817.0
2018-Jul-19 10:00N 43°41' W 068°32'917.5
2018-Jul-19 09:30N 43°35' W 068°41'5419.2
2018-Jul-19 06:42N 43°02' W 069°39'418.1
2018-Jul-19 06:30N 42°59' W 069°42'1017.8
2018-Jul-19 05:58N 42°54' W 069°53'817.2
2018-Jul-19 05:30N 42°49' W 070°01'917.5
2018-Jul-19 05:00N 42°43' W 070°11'917.4
2018-Jul-19 04:30N 42°38' W 070°20'918.4
2018-Jul-19 04:00N 42°33' W 070°30'917.9
2018-Jul-19 03:30N 42°28' W 070°41'917.9
2018-Jul-19 03:00N 42°23' W 070°51'611.7
2018-Jul-19 02:30N 42°20' W 070°57'3 5.9
2018-Jul-19 02:00N 42°21' W 071°01'0 0.9
2018-Jul-19 01:29N 42°21' W 071°02'0 0.0
2018-Jul-19 00:59N 42°21' W 071°02'0 0.0
2018-Jul-19 00:29N 42°21' W 071°02'0 0.0
2018-Jul-18 23:59N 42°21' W 071°02'0 0.0
2018-Jul-18 23:29N 42°21' W 071°02'0 0.0
2018-Jul-18 22:56N 42°21' W 071°02'0 0.0
2018-Jul-18 22:23N 42°21' W 071°02'0 0.0
2018-Jul-18 21:56N 42°21' W 071°02'0 0.0
2018-Jul-18 20:44N 42°21' W 071°02'0 0.0
2018-Jul-18 17:20N 42°21' W 071°02'0 0.0
2018-Jul-18 16:02N 42°21' W 071°02'0 0.0
2018-Jul-18 15:56N 42°21' W 071°02'0 0.0
2018-Jul-18 15:26N 42°21' W 071°02'0 0.0
2018-Jul-18 14:56N 42°21' W 071°02'0 0.0
2018-Jul-18 14:23N 42°21' W 071°02'0 0.0
2018-Jul-18 12:47N 42°21' W 071°02'0 0.0
2018-Jul-18 12:26N 42°21' W 071°02'0 0.0
2018-Jul-18 11:56N 42°21' W 071°02'0 0.0
2018-Jul-18 11:29N 42°21' W 071°02'0 0.0
2018-Jul-18 10:30N 42°21' W 071°02'2 4.7
2018-Jul-18 10:00N 42°20' W 070°59'510.0
2018-Jul-18 09:30N 42°23' W 070°53'610.6
2018-Jul-18 08:59N 42°24' W 070°46'511.3
2018-Jul-18 08:30N 42°25' W 070°39'611.0
2018-Jul-18 08:00N 42°26' W 070°32'611.3
2018-Jul-18 07:30N 42°27' W 070°24'611.4
2018-Jul-18 07:00N 42°28' W 070°16'510.9
2018-Jul-18 06:31N 42°29' W 070°09'610.9
2018-Jul-18 06:00N 42°31' W 070°02'511.2
2018-Jul-18 05:31N 42°33' W 069°55'611.5
2018-Jul-18 05:01N 42°35' W 069°48'611.3
2018-Jul-18 04:29N 42°36' W 069°40'611.3
2018-Jul-18 03:58N 42°36' W 069°32'  
2018-Jul-15 09:00N 46°00' W 054°54'11614.0 190 / 251018.9 11.511.310.0
2018-Jul-15 00:42N 47°07' W 052°35'415.7
2018-Jul-15 00:27N 47°11' W 052°35'715.7
2018-Jul-15 00:01N 47°17' W 052°35'815.5
2018-Jul-14 23:30N 47°25' W 052°32'814.9
2018-Jul-14 22:57N 47°33' W 052°35'4 8.6
2018-Jul-14 22:27N 47°34' W 052°41'1 1.3
2018-Jul-14 21:59N 47°34' W 052°42'0 0.0
2018-Jul-14 21:23N 47°34' W 052°42'0 0.0
2018-Jul-14 20:59N 47°34' W 052°42'0 0.0
2018-Jul-14 20:29N 47°34' W 052°42'0 0.0
2018-Jul-14 19:59N 47°34' W 052°42'0 0.0
2018-Jul-14 19:29N 47°34' W 052°42'0 0.0
2018-Jul-14 18:59N 47°34' W 052°42'0 0.0
2018-Jul-14 18:29N 47°34' W 052°42'0 0.0
2018-Jul-14 17:53N 47°34' W 052°42'0 0.0
2018-Jul-14 17:23N 47°34' W 052°42'0 0.0
2018-Jul-14 16:59N 47°34' W 052°42'0 0.0
2018-Jul-14 16:29N 47°34' W 052°42'0 0.0
2018-Jul-14 15:53N 47°34' W 052°42'0 0.0
2018-Jul-14 15:29N 47°34' W 052°42'0 0.0
2018-Jul-14 14:56N 47°34' W 052°42'0 0.0
2018-Jul-14 13:53N 47°34' W 052°42'0 0.0
2018-Jul-14 13:29N 47°34' W 052°42'0 0.0
2018-Jul-14 12:56N 47°34' W 052°42'0 0.0
2018-Jul-14 12:29N 47°34' W 052°42'0 0.0
2018-Jul-14 11:53N 47°34' W 052°42'0 0.0
2018-Jul-14 11:26N 47°34' W 052°42'0 0.0
2018-Jul-14 10:56N 47°34' W 052°42'0 0.0
2018-Jul-14 10:26N 47°34' W 052°42'0 1.0
2018-Jul-14 10:00N 47°34' W 052°42'4 7.0
2018-Jul-14 09:23N 47°35' W 052°35'1510.9
2018-Jul-14 08:00N 47°48' W 052°24'5413.4 200 / 171027.110.8 9.0 1.9 7.0
2018-Jul-14 04:00N 48°36' W 051°48'30818.1 200 / 201009.210.8 7.0 2.0
2018-Jul-13 11:00N 53°30' W 049°24'41316.5 340 / 231014.910.8 7.2 2.3 8.0
2018-Jul-12 10:00N 60°00' W 045°18'11 2.7 190 / 141010.5 3.8 2.0
2018-Jul-12 06:00N 59°54' W 045°36'31 1.2 180 / 201010.0 3.0 2.0
2018-Jul-11 04:00N 60°00' W 046°36'   080 / 131010.0 5.4 3.0 2.0
Track history (hours):
 
Tides and Currents Weather Stations Pressure Air Temp Water Temp Dewpoint Dewpoint Depression Visibility Wind Speed Wind Dir Waves Ship Positions

Rotterdam

Operator: Holland America Line

Last reported at 2018-Jul-20 12:00 UTC. Time now 2018-Jul-22 03:20 UTC.
Position N 43°24' W 064°36'.

Length 228 m; beam 29 m.

Type: Ship. MMSI: 24616700.

Wind from 110 at 3 knots

Barometer 1022.9 mb
Visibility: greater than 0.0 NM

Date/timePositionNaut miles runAvg speedWind from/ knotsBaromVisibWave heightAir tempDewpointWater temp
2018-Jul-20 12:00N 43°24' W 064°36'166 7.3 110 / 31022.9 0.0
2018-Jul-19 13:16N 44°24' W 068°11'2 7.6
2018-Jul-19 12:57N 44°22' W 068°09'511.9
2018-Jul-19 12:30N 44°16' W 068°08'713.8
2018-Jul-19 12:00N 44°10' W 068°08'916.6
2018-Jul-19 11:28N 44°01' W 068°10'817.2
2018-Jul-19 11:00N 43°54' W 068°17'816.8
2018-Jul-19 10:30N 43°48' W 068°24'817.0
2018-Jul-19 10:00N 43°41' W 068°32'917.5
2018-Jul-19 09:30N 43°35' W 068°41'5419.2
2018-Jul-19 06:42N 43°02' W 069°39'418.1
2018-Jul-19 06:30N 42°59' W 069°42'1017.8
2018-Jul-19 05:58N 42°54' W 069°53'817.2
2018-Jul-19 05:30N 42°49' W 070°01'917.5
2018-Jul-19 05:00N 42°43' W 070°11'917.4
2018-Jul-19 04:30N 42°38' W 070°20'918.4
2018-Jul-19 04:00N 42°33' W 070°30'917.9
2018-Jul-19 03:30N 42°28' W 070°41'917.9
2018-Jul-19 03:00N 42°23' W 070°51'611.7
2018-Jul-19 02:30N 42°20' W 070°57'3 5.9
2018-Jul-19 02:00N 42°21' W 071°01'0 0.9
2018-Jul-19 01:29N 42°21' W 071°02'0 0.0
2018-Jul-19 00:59N 42°21' W 071°02'0 0.0
2018-Jul-19 00:29N 42°21' W 071°02'0 0.0
2018-Jul-18 23:59N 42°21' W 071°02'0 0.0
2018-Jul-18 23:29N 42°21' W 071°02'0 0.0
2018-Jul-18 22:56N 42°21' W 071°02'0 0.0
2018-Jul-18 22:23N 42°21' W 071°02'0 0.0
2018-Jul-18 21:56N 42°21' W 071°02'0 0.0
2018-Jul-18 20:44N 42°21' W 071°02'0 0.0
2018-Jul-18 17:20N 42°21' W 071°02'0 0.0
2018-Jul-18 16:02N 42°21' W 071°02'0 0.0
2018-Jul-18 15:56N 42°21' W 071°02'0 0.0
2018-Jul-18 15:26N 42°21' W 071°02'0 0.0
2018-Jul-18 14:56N 42°21' W 071°02'0 0.0
2018-Jul-18 14:23N 42°21' W 071°02'0 0.0
2018-Jul-18 12:47N 42°21' W 071°02'0 0.0
2018-Jul-18 12:26N 42°21' W 071°02'0 0.0
2018-Jul-18 11:56N 42°21' W 071°02'0 0.0
2018-Jul-18 11:29N 42°21' W 071°02'0 0.0
2018-Jul-18 10:30N 42°21' W 071°02'2 4.7
2018-Jul-18 10:00N 42°20' W 070°59'510.0
2018-Jul-18 09:30N 42°23' W 070°53'610.6
2018-Jul-18 08:59N 42°24' W 070°46'511.3
2018-Jul-18 08:30N 42°25' W 070°39'611.0
2018-Jul-18 08:00N 42°26' W 070°32'611.3
2018-Jul-18 07:30N 42°27' W 070°24'611.4
2018-Jul-18 07:00N 42°28' W 070°16'510.9
2018-Jul-18 06:31N 42°29' W 070°09'610.9
2018-Jul-18 06:00N 42°31' W 070°02'511.2
2018-Jul-18 05:31N 42°33' W 069°55'611.5
2018-Jul-18 05:01N 42°35' W 069°48'611.3
2018-Jul-18 04:29N 42°36' W 069°40'611.3
2018-Jul-18 03:58N 42°36' W 069°32'  
2018-Jul-15 09:00N 46°00' W 054°54'11614.0 190 / 251018.9 11.511.310.0
2018-Jul-15 00:42N 47°07' W 052°35'415.7
2018-Jul-15 00:27N 47°11' W 052°35'715.7
2018-Jul-15 00:01N 47°17' W 052°35'815.5
2018-Jul-14 23:30N 47°25' W 052°32'814.9
2018-Jul-14 22:57N 47°33' W 052°35'4 8.6
2018-Jul-14 22:27N 47°34' W 052°41'1 1.3
2018-Jul-14 21:59N 47°34' W 052°42'0 0.0
2018-Jul-14 21:23N 47°34' W 052°42'0 0.0
2018-Jul-14 20:59N 47°34' W 052°42'0 0.0
2018-Jul-14 20:29N 47°34' W 052°42'0 0.0
2018-Jul-14 19:59N 47°34' W 052°42'0 0.0
2018-Jul-14 19:29N 47°34' W 052°42'0 0.0
2018-Jul-14 18:59N 47°34' W 052°42'0 0.0
2018-Jul-14 18:29N 47°34' W 052°42'0 0.0
2018-Jul-14 17:53N 47°34' W 052°42'0 0.0
2018-Jul-14 17:23N 47°34' W 052°42'0 0.0
2018-Jul-14 16:59N 47°34' W 052°42'0 0.0
2018-Jul-14 16:29N 47°34' W 052°42'0 0.0
2018-Jul-14 15:53N 47°34' W 052°42'0 0.0
2018-Jul-14 15:29N 47°34' W 052°42'0 0.0
2018-Jul-14 14:56N 47°34' W 052°42'0 0.0
2018-Jul-14 13:53N 47°34' W 052°42'0 0.0
2018-Jul-14 13:29N 47°34' W 052°42'0 0.0
2018-Jul-14 12:56N 47°34' W 052°42'0 0.0
2018-Jul-14 12:29N 47°34' W 052°42'0 0.0
2018-Jul-14 11:53N 47°34' W 052°42'0 0.0
2018-Jul-14 11:26N 47°34' W 052°42'0 0.0
2018-Jul-14 10:56N 47°34' W 052°42'0 0.0
2018-Jul-14 10:26N 47°34' W 052°42'0 1.0
2018-Jul-14 10:00N 47°34' W 052°42'4 7.0
2018-Jul-14 09:23N 47°35' W 052°35'1510.9
2018-Jul-14 08:00N 47°48' W 052°24'5413.4 200 / 171027.110.8 9.0 1.9 7.0
2018-Jul-14 04:00N 48°36' W 051°48'30818.1 200 / 201009.210.8 7.0 2.0
2018-Jul-13 11:00N 53°30' W 049°24'41316.5 340 / 231014.910.8 7.2 2.3 8.0
2018-Jul-12 10:00N 60°00' W 045°18'11 2.7 190 / 141010.5 3.8 2.0
2018-Jul-12 06:00N 59°54' W 045°36'31 1.2 180 / 201010.0 3.0 2.0
2018-Jul-11 04:00N 60°00' W 046°36'   080 / 131010.0 5.4 3.0 2.0

Dump ship's entire track history